createdAt,value
2018-04-17T00:00:02.952Z,12.45
2018-04-17T00:01:03.912Z,12.37
2018-04-17T00:02:02.936Z,12.36
2018-04-17T00:03:02.918Z,12.37
2018-04-17T00:04:02.876Z,12.39
2018-04-17T00:05:02.855Z,12.36
2018-04-17T00:06:02.836Z,12.25
2018-04-17T00:07:02.818Z,12.33
2018-04-17T00:08:02.796Z,12.28
2018-04-17T00:09:02.780Z,12.30
2018-04-17T00:10:02.756Z,12.37
2018-04-17T00:11:02.738Z,12.28
2018-04-17T00:12:02.719Z,12.29
2018-04-17T00:13:02.697Z,12.23
2018-04-17T00:14:02.676Z,12.26
2018-04-17T00:15:02.657Z,12.23
2018-04-17T00:16:02.642Z,12.18
2018-04-17T00:17:02.619Z,12.12
2018-04-17T00:18:02.599Z,12.15
2018-04-17T00:19:02.577Z,12.17
2018-04-17T00:20:02.561Z,12.14
2018-04-17T00:21:02.540Z,12.17
2018-04-17T00:22:02.517Z,12.15
2018-04-17T00:23:02.501Z,12.15
2018-04-17T00:24:02.480Z,12.14
2018-04-17T00:25:02.460Z,12.12
2018-04-17T00:26:02.444Z,12.15
2018-04-17T00:27:02.419Z,12.05
2018-04-17T00:28:02.402Z,12.10
2018-04-17T00:29:02.386Z,11.99
2018-04-17T00:30:02.361Z,12.00
2018-04-17T00:31:02.342Z,11.89
2018-04-17T00:32:02.319Z,12.02
2018-04-17T00:33:02.299Z,11.99
2018-04-17T00:34:02.280Z,11.97
2018-04-17T00:35:02.263Z,11.89
2018-04-17T00:36:02.243Z,11.93
2018-04-17T00:37:02.222Z,11.88
2018-04-17T00:38:02.205Z,11.88
2018-04-17T00:39:02.180Z,11.95
2018-04-17T00:40:02.160Z,11.95
2018-04-17T00:41:02.142Z,11.85
2018-04-17T00:42:02.119Z,11.85
2018-04-17T00:43:02.109Z,11.95
2018-04-17T00:44:02.083Z,11.85
2018-04-17T00:45:02.062Z,11.93
2018-04-17T00:46:02.041Z,11.96
2018-04-17T00:47:02.023Z,11.89
2018-04-17T00:48:02.001Z,11.88
2018-04-17T00:49:01.980Z,11.91
2018-04-17T00:50:01.962Z,11.86
2018-04-17T00:51:01.942Z,11.83
2018-04-17T00:52:01.937Z,11.89
2018-04-17T00:53:01.903Z,11.86
2018-04-17T00:54:01.887Z,11.81
2018-04-17T00:55:01.863Z,11.76
2018-04-17T00:56:01.848Z,11.77
2018-04-17T00:57:01.824Z,11.74
2018-04-17T00:58:01.803Z,11.73
2018-04-17T00:59:01.784Z,11.81
2018-04-17T01:00:01.762Z,11.71
2018-04-17T01:01:01.759Z,11.73
2018-04-17T01:02:01.892Z,11.59
2018-04-17T01:03:01.702Z,11.56
2018-04-17T01:04:01.681Z,11.60
2018-04-17T01:05:01.662Z,11.58
2018-04-17T01:06:01.642Z,11.58
2018-04-17T01:07:01.624Z,11.60
2018-04-17T01:08:01.600Z,11.52
2018-04-17T01:09:01.581Z,11.52
2018-04-17T01:10:01.561Z,11.49
2018-04-17T01:11:01.542Z,11.55
2018-04-17T01:12:01.521Z,11.49
2018-04-17T01:13:01.502Z,11.62
2018-04-17T01:14:01.481Z,11.59
2018-04-17T01:15:01.465Z,11.51
2018-04-17T01:16:01.441Z,11.45
2018-04-17T01:17:01.425Z,11.58
2018-04-17T01:18:01.399Z,11.49
2018-04-17T01:19:01.383Z,11.49
2018-04-17T01:20:01.359Z,11.58
2018-04-17T01:21:01.343Z,11.53
2018-04-17T01:22:01.318Z,11.51
2018-04-17T01:23:01.297Z,11.45
2018-04-17T01:24:01.277Z,11.41
2018-04-17T01:25:01.258Z,11.44
2018-04-17T01:26:01.239Z,11.44
2018-04-17T01:27:01.216Z,11.40
2018-04-17T01:28:01.197Z,11.38
2018-04-17T01:29:01.184Z,11.49
2018-04-17T01:30:01.156Z,11.43
2018-04-17T01:31:01.135Z,11.38
2018-04-17T01:32:01.117Z,11.34
2018-04-17T01:33:01.881Z,11.34
2018-04-17T01:34:01.076Z,11.41
2018-04-17T01:35:01.055Z,11.23
2018-04-17T01:36:01.037Z,11.25
2018-04-17T01:37:01.015Z,11.27
2018-04-17T01:38:00.992Z,11.26
2018-04-17T01:39:00.973Z,11.27
2018-04-17T01:40:00.951Z,11.26
2018-04-17T01:41:00.933Z,11.19
2018-04-17T01:42:00.910Z,11.31
2018-04-17T01:43:00.891Z,11.23
2018-04-17T01:44:00.870Z,11.41
2018-04-17T01:45:00.849Z,11.22
2018-04-17T01:46:00.828Z,11.25
2018-04-17T01:47:00.814Z,11.22
2018-04-17T01:48:00.792Z,11.33
2018-04-17T01:49:00.767Z,11.26
2018-04-17T01:50:00.752Z,11.23
2018-04-17T01:51:00.730Z,11.25
2018-04-17T01:52:00.707Z,11.26
2018-04-17T01:53:00.687Z,11.16
2018-04-17T01:54:00.667Z,11.25
2018-04-17T01:55:00.647Z,11.12
2018-04-17T01:56:00.626Z,11.15
2018-04-17T01:57:00.608Z,11.07
2018-04-17T01:58:00.594Z,11.01
2018-04-17T01:59:00.575Z,10.94
2018-04-17T02:00:00.545Z,10.95
2018-04-17T02:01:00.527Z,10.90
2018-04-17T02:02:00.503Z,10.90
2018-04-17T02:03:00.489Z,10.90
2018-04-17T02:04:00.466Z,10.94
2018-04-17T02:05:00.446Z,11.00
2018-04-17T02:06:00.425Z,10.90
2018-04-17T02:07:00.401Z,10.98
2018-04-17T02:08:00.384Z,10.97
2018-04-17T02:09:00.361Z,10.98
2018-04-17T02:10:00.396Z,10.97
2018-04-17T02:11:00.320Z,10.94
2018-04-17T02:12:00.300Z,10.98
2018-04-17T02:13:00.290Z,11.00
2018-04-17T02:14:00.274Z,10.98
2018-04-17T02:15:00.238Z,10.84
2018-04-17T02:16:00.219Z,10.86
2018-04-17T02:17:00.198Z,10.79
2018-04-17T02:18:00.178Z,10.76
2018-04-17T02:19:00.156Z,10.72
2018-04-17T02:20:00.136Z,10.71
2018-04-17T02:21:00.120Z,10.77
2018-04-17T02:22:00.099Z,10.69
2018-04-17T02:23:00.150Z,10.79
2018-04-17T02:24:00.054Z,10.72
2018-04-17T02:25:00.036Z,10.77
2018-04-17T02:26:00.010Z,10.83
2018-04-17T02:26:59.990Z,10.86
2018-04-17T02:27:59.971Z,10.83
2018-04-17T02:28:59.948Z,10.82
2018-04-17T02:29:59.929Z,10.86
2018-04-17T02:30:59.908Z,10.87
2018-04-17T02:31:59.889Z,10.89
2018-04-17T02:32:59.866Z,10.87
2018-04-17T02:34:00.340Z,10.84
2018-04-17T02:34:59.825Z,10.83
2018-04-17T02:35:59.813Z,10.80
2018-04-17T02:36:59.791Z,10.84
2018-04-17T02:37:59.766Z,10.76
2018-04-17T02:38:59.743Z,10.77
2018-04-17T02:39:59.723Z,10.69
2018-04-17T02:40:59.701Z,10.76
2018-04-17T02:41:59.680Z,10.72
2018-04-17T02:42:59.659Z,10.71
2018-04-17T02:43:59.638Z,10.72
2018-04-17T02:44:59.620Z,10.71
2018-04-17T02:45:59.597Z,10.72
2018-04-17T02:46:59.576Z,10.76
2018-04-17T02:47:59.558Z,10.75
2018-04-17T02:48:59.535Z,10.79
2018-04-17T02:49:59.514Z,10.77
2018-04-17T02:50:59.493Z,10.71
2018-04-17T02:51:59.475Z,10.68
2018-04-17T02:52:59.453Z,10.68
2018-04-17T02:53:59.430Z,10.68
2018-04-17T02:54:59.409Z,10.72
2018-04-17T02:55:59.389Z,10.71
2018-04-17T02:56:59.370Z,10.59
2018-04-17T02:57:59.345Z,10.68
2018-04-17T02:58:59.325Z,10.59
2018-04-17T02:59:59.330Z,10.61
2018-04-17T03:00:59.284Z,10.65
2018-04-17T03:01:59.262Z,10.69
2018-04-17T03:02:59.242Z,10.58
2018-04-17T03:03:59.230Z,10.58
2018-04-17T03:04:59.200Z,10.61
2018-04-17T03:05:59.181Z,10.64
2018-04-17T03:06:59.157Z,10.59
2018-04-17T03:07:59.138Z,10.64
2018-04-17T03:08:59.117Z,10.58
2018-04-17T03:09:59.095Z,10.64
2018-04-17T03:10:59.103Z,10.51
2018-04-17T03:11:59.052Z,10.48
2018-04-17T03:12:59.034Z,10.46
2018-04-17T03:13:59.013Z,10.39
2018-04-17T03:14:58.990Z,10.45
2018-04-17T03:15:58.969Z,10.41
2018-04-17T03:16:58.950Z,10.39
2018-04-17T03:17:58.927Z,10.36
2018-04-17T03:18:58.925Z,10.39
2018-04-17T03:19:58.885Z,10.38
2018-04-17T03:20:58.924Z,10.39
2018-04-17T03:21:58.846Z,10.34
2018-04-17T03:22:58.868Z,10.31
2018-04-17T03:23:58.805Z,10.38
2018-04-17T03:24:58.872Z,10.34
2018-04-17T03:25:58.774Z,10.31
2018-04-17T03:26:58.764Z,10.21
2018-04-17T03:27:58.720Z,10.34
2018-04-17T03:28:58.722Z,10.34
2018-04-17T03:29:58.677Z,10.30
2018-04-17T03:30:58.655Z,10.24
2018-04-17T03:31:58.636Z,10.23
2018-04-17T03:32:58.618Z,10.25
2018-04-17T03:33:58.592Z,10.31
2018-04-17T03:34:58.819Z,10.20
2018-04-17T03:35:58.550Z,10.24
2018-04-17T03:36:58.528Z,10.21
2018-04-17T03:37:58.507Z,10.17
2018-04-17T03:38:58.484Z,10.23
2018-04-17T03:39:58.465Z,10.24
2018-04-17T03:40:58.459Z,10.21
2018-04-17T03:41:58.422Z,10.21
2018-04-17T03:42:58.402Z,10.25
2018-04-17T03:43:58.387Z,10.27
2018-04-17T03:44:58.357Z,10.21
2018-04-17T03:45:58.399Z,10.24
2018-04-17T03:46:58.316Z,10.25
2018-04-17T03:47:58.295Z,10.25
2018-04-17T03:48:58.274Z,10.23
2018-04-17T03:49:58.252Z,10.27
2018-04-17T03:50:58.232Z,10.27
2018-04-17T03:51:58.220Z,10.17
2018-04-17T03:52:58.191Z,10.21
2018-04-17T03:53:58.168Z,10.18
2018-04-17T03:54:58.147Z,10.10
2018-04-17T03:55:58.129Z,10.17
2018-04-17T03:56:58.104Z,10.18
2018-04-17T03:57:58.081Z,10.13
2018-04-17T03:58:58.062Z,10.10
2018-04-17T03:59:58.039Z,10.09
2018-04-17T04:00:58.021Z,10.06
2018-04-17T04:01:57.997Z,10.06
2018-04-17T04:02:57.977Z,10.02
2018-04-17T04:03:57.955Z,9.97
2018-04-17T04:04:57.937Z,9.95
2018-04-17T04:05:58.776Z,10.00
2018-04-17T04:06:57.894Z,9.94
2018-04-17T04:07:57.871Z,9.87
2018-04-17T04:08:57.849Z,9.95
2018-04-17T04:09:57.878Z,9.97
2018-04-17T04:10:57.839Z,9.90
2018-04-17T04:11:57.783Z,9.91
2018-04-17T04:12:57.781Z,9.91
2018-04-17T04:13:57.828Z,9.91
2018-04-17T04:14:57.755Z,9.95
2018-04-17T04:15:57.716Z,9.91
2018-04-17T04:16:57.690Z,9.90
2018-04-17T04:17:57.728Z,9.87
2018-04-17T04:18:57.704Z,9.92
2018-04-17T04:19:57.676Z,9.91
2018-04-17T04:20:57.649Z,9.91
2018-04-17T04:21:57.604Z,9.87
2018-04-17T04:22:57.552Z,9.95
2018-04-17T04:23:57.527Z,9.92
2018-04-17T04:24:57.510Z,9.90
2018-04-17T04:25:57.487Z,9.90
2018-04-17T04:26:57.463Z,9.87
2018-04-17T04:27:57.496Z,9.84
2018-04-17T04:28:57.456Z,9.85
2018-04-17T04:29:57.431Z,9.87
2018-04-17T04:30:57.440Z,9.85
2018-04-17T04:31:57.358Z,9.81
2018-04-17T04:32:57.335Z,9.91
2018-04-17T04:33:57.311Z,9.84
2018-04-17T04:34:57.534Z,9.80
2018-04-17T04:35:57.271Z,9.91
2018-04-17T04:36:57.304Z,9.80
2018-04-17T04:37:57.226Z,9.81
2018-04-17T04:38:57.204Z,9.85
2018-04-17T04:39:57.187Z,9.80
2018-04-17T04:40:57.188Z,9.76
2018-04-17T04:41:57.139Z,9.88
2018-04-17T04:42:57.118Z,9.88
2018-04-17T04:43:57.097Z,9.90
2018-04-17T04:44:57.077Z,9.87
2018-04-17T04:45:57.053Z,9.88
2018-04-17T04:46:57.050Z,9.85
2018-04-17T04:47:57.011Z,9.87
2018-04-17T04:48:56.989Z,9.91
2018-04-17T04:49:56.967Z,9.90
2018-04-17T04:50:56.945Z,9.87
2018-04-17T04:51:56.925Z,9.92
2018-04-17T04:52:56.907Z,9.91
2018-04-17T04:53:56.945Z,9.90
2018-04-17T04:54:56.923Z,9.80
2018-04-17T04:55:56.841Z,9.81
2018-04-17T04:56:56.817Z,9.77
2018-04-17T04:57:56.798Z,9.76
2018-04-17T04:58:56.777Z,9.77
2018-04-17T04:59:56.814Z,9.81
2018-04-17T05:00:56.733Z,9.82
2018-04-17T05:01:56.710Z,9.81
2018-04-17T05:02:56.731Z,9.91
2018-04-17T05:03:56.667Z,9.90
2018-04-17T05:04:56.890Z,9.91
2018-04-17T05:05:56.623Z,9.91
2018-04-17T05:06:56.602Z,9.99
2018-04-17T05:07:56.581Z,9.97
2018-04-17T05:08:56.559Z,10.10
2018-04-17T05:09:56.538Z,10.10
2018-04-17T05:10:56.515Z,10.10
2018-04-17T05:11:56.495Z,10.06
2018-04-17T05:12:56.472Z,10.06
2018-04-17T05:13:56.452Z,9.95
2018-04-17T05:14:56.436Z,10.00
2018-04-17T05:15:56.407Z,9.91
2018-04-17T05:16:56.388Z,9.94
2018-04-17T05:17:56.365Z,10.00
2018-04-17T05:18:56.346Z,10.00
2018-04-17T05:19:56.323Z,10.07
2018-04-17T05:20:56.305Z,10.05
2018-04-17T05:21:56.319Z,10.03
2018-04-17T05:22:56.259Z,10.06
2018-04-17T05:23:56.238Z,9.97
2018-04-17T05:24:56.219Z,9.99
2018-04-17T05:25:56.192Z,10.12
2018-04-17T05:26:56.180Z,10.20
2018-04-17T05:27:56.149Z,10.24
2018-04-17T05:28:56.186Z,10.31
2018-04-17T05:29:56.158Z,10.31
2018-04-17T05:30:56.084Z,10.31
2018-04-17T05:31:56.066Z,10.30
2018-04-17T05:32:56.042Z,10.21
2018-04-17T05:33:56.233Z,10.34
2018-04-17T05:34:56.922Z,10.36
2018-04-17T05:35:55.986Z,10.31
2018-04-17T05:36:55.969Z,10.45
2018-04-17T05:37:55.988Z,10.43
2018-04-17T05:38:57.910Z,10.39
2018-04-17T05:39:55.918Z,10.42
2018-04-17T05:40:55.873Z,10.41
2018-04-17T05:41:55.849Z,10.43
2018-04-17T05:42:55.828Z,10.51
2018-04-17T05:43:55.810Z,10.58
2018-04-17T05:44:55.790Z,10.62
2018-04-17T05:45:55.765Z,10.62
2018-04-17T05:46:55.746Z,10.77
2018-04-17T05:47:55.723Z,10.69
2018-04-17T05:48:55.702Z,10.72
2018-04-17T05:49:55.677Z,10.76
2018-04-17T05:50:55.660Z,10.79
2018-04-17T05:51:55.638Z,10.87
2018-04-17T05:52:55.616Z,10.90
2018-04-17T05:53:55.595Z,10.98
2018-04-17T05:54:55.573Z,10.92
2018-04-17T05:55:55.665Z,11.05
2018-04-17T05:56:55.531Z,11.07
2018-04-17T05:57:55.553Z,11.19
2018-04-17T05:58:55.538Z,11.18
2018-04-17T05:59:55.468Z,11.16
2018-04-17T06:00:55.447Z,11.26
2018-04-17T06:01:56.312Z,11.34
2018-04-17T06:02:55.406Z,11.35
2018-04-17T06:03:55.387Z,11.31
2018-04-17T06:04:55.363Z,11.53
2018-04-17T06:05:55.342Z,11.53
2018-04-17T06:06:55.320Z,11.60
2018-04-17T06:07:55.303Z,11.67
2018-04-17T06:08:55.281Z,11.68
2018-04-17T06:09:55.259Z,11.77
2018-04-17T06:10:55.237Z,11.81
2018-04-17T06:11:55.216Z,11.89
2018-04-17T06:12:55.199Z,11.96
2018-04-17T06:13:55.176Z,11.97
2018-04-17T06:14:55.155Z,11.93
2018-04-17T06:15:55.133Z,12.00
2018-04-17T06:16:55.114Z,12.10
2018-04-17T06:17:55.094Z,12.12
2018-04-17T06:18:55.071Z,12.10
2018-04-17T06:19:55.051Z,12.12
2018-04-17T06:20:55.032Z,12.20
2018-04-17T06:21:55.010Z,12.21
2018-04-17T06:22:54.989Z,12.26
2018-04-17T06:23:54.970Z,12.39
2018-04-17T06:24:54.949Z,12.39
2018-04-17T06:25:54.929Z,12.53
2018-04-17T06:26:54.909Z,12.58
2018-04-17T06:27:54.893Z,12.51
2018-04-17T06:28:54.866Z,12.55
2018-04-17T06:29:54.848Z,12.72
2018-04-17T06:30:54.833Z,12.70
2018-04-17T06:31:54.809Z,12.78
2018-04-17T06:32:54.787Z,12.91
2018-04-17T06:33:54.764Z,12.84
2018-04-17T06:34:54.745Z,12.91
2018-04-17T06:35:54.727Z,13.03
2018-04-17T06:36:54.704Z,13.01
2018-04-17T06:37:54.683Z,13.06
2018-04-17T06:38:54.663Z,13.06
2018-04-17T06:39:54.643Z,13.06
2018-04-17T06:40:54.625Z,13.16
2018-04-17T06:41:54.673Z,13.24
2018-04-17T06:42:54.584Z,13.20
2018-04-17T06:43:54.563Z,13.33
2018-04-17T06:44:54.547Z,13.30
2018-04-17T06:45:54.526Z,13.39
2018-04-17T06:46:54.503Z,13.46
2018-04-17T06:47:54.485Z,13.49
2018-04-17T06:48:54.463Z,13.52
2018-04-17T06:49:54.445Z,13.57
2018-04-17T06:50:54.425Z,13.67
2018-04-17T06:51:54.406Z,13.58
2018-04-17T06:52:54.441Z,13.75
2018-04-17T06:53:54.366Z,13.67
2018-04-17T06:54:54.346Z,13.67
2018-04-17T06:55:54.328Z,13.68
2018-04-17T06:56:54.306Z,13.78
2018-04-17T06:57:54.285Z,13.82
2018-04-17T06:58:54.267Z,13.87
2018-04-17T06:59:54.247Z,13.89
2018-04-17T07:00:54.227Z,13.95
2018-04-17T07:01:54.210Z,14.04
2018-04-17T07:02:54.577Z,14.08
2018-04-17T07:03:54.171Z,14.13
2018-04-17T07:04:54.151Z,14.18
2018-04-17T07:05:54.142Z,14.19
2018-04-17T07:06:54.111Z,14.16
2018-04-17T07:07:54.092Z,14.19
2018-04-17T07:08:54.073Z,14.04
2018-04-17T07:09:54.054Z,14.03
2018-04-17T07:10:54.037Z,14.08
2018-04-17T07:11:54.015Z,13.98
2018-04-17T07:12:53.997Z,13.91
2018-04-17T07:13:53.976Z,13.95
2018-04-17T07:14:53.962Z,14.01
2018-04-17T07:15:53.940Z,13.97
2018-04-17T07:16:53.977Z,14.08
2018-04-17T07:17:53.905Z,14.18
2018-04-17T07:18:53.882Z,14.25
2018-04-17T07:19:53.865Z,14.22
2018-04-17T07:20:53.848Z,14.31
2018-04-17T07:21:53.827Z,14.36
2018-04-17T07:22:53.807Z,14.44
2018-04-17T07:23:53.788Z,14.48
2018-04-17T07:24:53.768Z,14.51
2018-04-17T07:25:53.750Z,14.52
2018-04-17T07:26:53.729Z,14.59
2018-04-17T07:27:53.712Z,14.66
2018-04-17T07:28:53.692Z,14.79
2018-04-17T07:29:53.677Z,14.77
2018-04-17T07:30:53.657Z,14.81
2018-04-17T07:31:53.636Z,14.92
2018-04-17T07:32:53.628Z,14.90
2018-04-17T07:33:54.568Z,14.93
2018-04-17T07:34:53.592Z,15.05
2018-04-17T07:35:53.566Z,15.05
2018-04-17T07:36:53.570Z,15.04
2018-04-17T07:37:53.524Z,15.12
2018-04-17T07:38:53.504Z,15.17
2018-04-17T07:39:53.486Z,15.25
2018-04-17T07:40:53.468Z,15.29
2018-04-17T07:41:53.449Z,15.26
2018-04-17T07:42:53.431Z,15.29
2018-04-17T07:43:53.411Z,15.35
2018-04-17T07:44:53.394Z,15.43
2018-04-17T07:45:53.375Z,15.44
2018-04-17T07:46:53.364Z,15.44
2018-04-17T07:47:53.342Z,15.45
2018-04-17T07:48:53.320Z,15.47
2018-04-17T07:49:53.300Z,15.47
2018-04-17T07:50:53.283Z,15.57
2018-04-17T07:51:53.264Z,15.52
2018-04-17T07:52:53.248Z,15.67
2018-04-17T07:53:53.226Z,15.70
2018-04-17T07:54:53.210Z,15.81
2018-04-17T07:55:53.191Z,15.81
2018-04-17T07:56:53.174Z,15.75
2018-04-17T07:57:53.157Z,15.80
2018-04-17T07:58:53.140Z,15.85
2018-04-17T07:59:53.118Z,15.96
2018-04-17T08:00:53.100Z,16.03
2018-04-17T08:01:53.081Z,16.03
2018-04-17T08:02:53.065Z,16.09
2018-04-17T08:03:53.049Z,16.16
2018-04-17T08:04:53.028Z,16.18
2018-04-17T08:05:53.011Z,16.16
2018-04-17T08:06:52.991Z,16.28
2018-04-17T08:07:52.973Z,16.32
2018-04-17T08:08:52.954Z,16.24
2018-04-17T08:09:52.938Z,16.18
2018-04-17T08:10:52.918Z,16.18
2018-04-17T08:11:52.957Z,16.21
2018-04-17T08:12:52.891Z,16.22
2018-04-17T08:13:52.864Z,16.24
2018-04-17T08:14:52.856Z,16.34
2018-04-17T08:15:52.828Z,16.28
2018-04-17T08:16:52.814Z,16.32
2018-04-17T08:17:52.794Z,16.34
2018-04-17T08:18:52.775Z,16.43
2018-04-17T08:19:52.758Z,16.40
2018-04-17T08:20:52.743Z,16.44
2018-04-17T08:21:52.721Z,16.34
2018-04-17T08:22:52.705Z,16.41
2018-04-17T08:23:52.687Z,16.46
2018-04-17T08:24:52.669Z,16.49
2018-04-17T08:25:52.650Z,16.62
2018-04-17T08:26:52.634Z,16.49
2018-04-17T08:27:52.674Z,16.49
2018-04-17T08:28:52.597Z,16.55
2018-04-17T08:29:52.582Z,16.61
2018-04-17T08:30:52.562Z,16.61
2018-04-17T08:31:52.544Z,16.68
2018-04-17T08:32:52.527Z,16.73
2018-04-17T08:33:52.533Z,16.86
2018-04-17T08:34:52.544Z,16.84
2018-04-17T08:35:52.476Z,16.89
2018-04-17T08:36:52.469Z,16.69
2018-04-17T08:37:52.438Z,16.69
2018-04-17T08:38:52.422Z,16.73
2018-04-17T08:39:52.407Z,16.87
2018-04-17T08:40:52.386Z,16.79
2018-04-17T08:41:52.369Z,16.73
2018-04-17T08:42:52.351Z,16.84
2018-04-17T08:43:52.332Z,16.94
2018-04-17T08:44:52.316Z,17.02
2018-04-17T08:45:52.297Z,17.07
2018-04-17T08:46:52.283Z,17.17
2018-04-17T08:47:52.262Z,17.19
2018-04-17T08:48:52.304Z,17.37
2018-04-17T08:49:52.228Z,17.41
2018-04-17T08:50:52.214Z,17.37
2018-04-17T08:51:52.196Z,17.47
2018-04-17T08:52:52.179Z,17.42
2018-04-17T08:53:52.160Z,17.39
2018-04-17T08:54:52.143Z,17.52
2018-04-17T08:55:52.126Z,17.52
2018-04-17T08:56:52.111Z,17.68
2018-04-17T08:57:52.093Z,17.69
2018-04-17T08:58:52.074Z,17.78
2018-04-17T08:59:52.057Z,17.76
2018-04-17T09:00:52.039Z,17.82
2018-04-17T09:01:52.023Z,17.80
2018-04-17T09:02:52.010Z,17.88
2018-04-17T09:03:51.989Z,18.00
2018-04-17T09:04:51.974Z,18.00
2018-04-17T09:05:52.534Z,18.18
2018-04-17T09:06:51.938Z,18.11
2018-04-17T09:07:51.921Z,18.18
2018-04-17T09:08:51.905Z,18.27
2018-04-17T09:09:51.887Z,18.30
2018-04-17T09:10:51.870Z,18.34
2018-04-17T09:11:51.937Z,18.46
2018-04-17T09:12:51.843Z,18.37
2018-04-17T09:13:51.821Z,18.46
2018-04-17T09:14:51.804Z,18.43
2018-04-17T09:15:51.787Z,18.53
2018-04-17T09:16:51.773Z,18.61
2018-04-17T09:17:51.754Z,18.70
2018-04-17T09:18:51.737Z,18.73
2018-04-17T09:19:51.723Z,18.70
2018-04-17T09:20:51.704Z,18.71
2018-04-17T09:21:51.694Z,18.64
2018-04-17T09:22:51.670Z,18.60
2018-04-17T09:23:51.699Z,18.53
2018-04-17T09:24:51.638Z,18.60
2018-04-17T09:25:51.625Z,18.63
2018-04-17T09:26:51.606Z,18.67
2018-04-17T09:27:51.589Z,18.76
2018-04-17T09:28:51.574Z,18.81
2018-04-17T09:29:51.556Z,18.82
2018-04-17T09:30:51.542Z,18.94
2018-04-17T09:31:51.523Z,18.92
2018-04-17T09:32:51.508Z,19.04
2018-04-17T09:33:51.497Z,19.08
2018-04-17T09:34:51.476Z,19.00
2018-04-17T09:35:51.458Z,19.22
2018-04-17T09:36:51.445Z,19.20
2018-04-17T09:37:51.425Z,19.26
2018-04-17T09:38:51.427Z,19.29
2018-04-17T09:39:51.394Z,19.29
2018-04-17T09:40:51.378Z,19.24
2018-04-17T09:41:51.363Z,19.27
2018-04-17T09:42:51.343Z,19.32
2018-04-17T09:43:51.330Z,19.16
2018-04-17T09:44:51.314Z,19.38
2018-04-17T09:45:51.296Z,19.29
2018-04-17T09:46:51.282Z,19.38
2018-04-17T09:47:51.264Z,19.29
2018-04-17T09:48:51.249Z,19.35
2018-04-17T09:49:51.233Z,19.35
2018-04-17T09:50:51.218Z,19.41
2018-04-17T09:51:51.199Z,19.44
2018-04-17T09:52:51.186Z,19.41
2018-04-17T09:53:51.169Z,19.48
2018-04-17T09:54:51.155Z,19.66
2018-04-17T09:55:51.135Z,19.49
2018-04-17T09:56:51.123Z,19.66
2018-04-17T09:57:51.109Z,19.75
2018-04-17T09:58:51.109Z,19.81
2018-04-17T09:59:51.075Z,19.90
2018-04-17T10:00:51.073Z,19.93
2018-04-17T10:01:51.043Z,19.92
2018-04-17T10:02:51.027Z,20.03
2018-04-17T10:03:51.015Z,20.14
2018-04-17T10:04:50.997Z,20.17
2018-04-17T10:05:50.979Z,20.07
2018-04-17T10:06:50.966Z,19.93
2018-04-17T10:07:50.949Z,20.03
2018-04-17T10:08:50.969Z,20.17
2018-04-17T10:09:50.918Z,20.03
2018-04-17T10:10:50.903Z,20.02
2018-04-17T10:11:50.887Z,19.94
2018-04-17T10:12:50.873Z,20.14
2018-04-17T10:13:50.857Z,20.15
2018-04-17T10:14:50.843Z,20.33
2018-04-17T10:15:50.828Z,20.53
2018-04-17T10:16:50.814Z,20.64
2018-04-17T10:17:50.796Z,20.93
2018-04-17T10:18:50.780Z,20.92
2018-04-17T10:19:50.767Z,21.19
2018-04-17T10:20:50.752Z,20.96
2018-04-17T10:21:50.736Z,20.83
2018-04-17T10:22:50.721Z,20.93
2018-04-17T10:23:50.707Z,21.11
2018-04-17T10:24:50.692Z,21.28
2018-04-17T10:25:50.678Z,21.45
2018-04-17T10:26:50.664Z,21.30
2018-04-17T10:27:50.648Z,21.48
2018-04-17T10:28:50.633Z,21.47
2018-04-17T10:29:50.642Z,21.66
2018-04-17T10:30:50.606Z,21.54
2018-04-17T10:31:50.596Z,22.10
2018-04-17T10:32:50.580Z,22.22
2018-04-17T10:33:50.564Z,22.93
2018-04-17T10:34:50.553Z,23.16
2018-04-17T10:35:50.541Z,22.99
2018-04-17T10:36:50.532Z,22.99
2018-04-17T10:37:50.513Z,22.73
2018-04-17T10:38:50.498Z,22.74
2018-04-17T10:39:50.486Z,22.99
2018-04-17T10:40:50.498Z,22.95
2018-04-17T10:41:50.463Z,23.71
2018-04-17T10:42:50.450Z,24.14
2018-04-17T10:43:50.436Z,24.75
2018-04-17T10:44:50.429Z,25.80
2018-04-17T10:45:50.410Z,26.56
2018-04-17T10:46:50.398Z,27.30
2018-04-17T10:47:50.384Z,28.06
2018-04-17T10:48:50.374Z,28.77
2018-04-17T10:49:50.364Z,28.01
2018-04-17T10:50:50.352Z,27.53
2018-04-17T10:51:50.340Z,27.16
2018-04-17T10:52:50.342Z,27.41
2018-04-17T10:53:50.327Z,26.86
2018-04-17T10:54:50.308Z,27.67
2018-04-17T10:55:50.298Z,27.55
2018-04-17T10:56:50.290Z,27.22
2018-04-17T10:57:50.277Z,27.25
2018-04-17T10:58:50.272Z,27.75
2018-04-17T10:59:50.309Z,27.88
2018-04-17T11:00:50.247Z,27.45
2018-04-17T11:01:50.245Z,27.11
2018-04-17T11:02:50.232Z,26.89
2018-04-17T11:03:50.221Z,27.52
2018-04-17T11:04:50.254Z,28.16
2018-04-17T11:05:50.201Z,28.47
2018-04-17T11:06:50.194Z,28.86
2018-04-17T11:07:50.185Z,28.94
2018-04-17T11:08:50.487Z,28.86
2018-04-17T11:09:50.170Z,28.78
2018-04-17T11:10:52.969Z,28.92
2018-04-17T11:11:50.151Z,28.72
2018-04-17T11:12:50.143Z,28.87
2018-04-17T11:13:50.136Z,29.15
2018-04-17T11:14:50.130Z,29.32
2018-04-17T11:15:50.121Z,29.34
2018-04-17T11:16:50.113Z,30.03
2018-04-17T11:17:50.105Z,30.43
2018-04-17T11:18:50.100Z,30.20
2018-04-17T11:19:50.092Z,30.10
2018-04-17T11:20:50.086Z,29.21
2018-04-17T11:21:50.079Z,28.62
2018-04-17T11:22:50.075Z,27.67
2018-04-17T11:23:50.067Z,27.26
2018-04-17T11:24:50.060Z,26.98
2018-04-17T11:25:50.054Z,26.48
2018-04-17T11:26:50.050Z,27.01
2018-04-17T11:27:50.053Z,27.48
2018-04-17T11:28:50.036Z,27.93
2018-04-17T11:29:50.030Z,28.30
2018-04-17T11:30:50.025Z,28.90
2018-04-17T11:31:50.018Z,30.05
2018-04-17T11:32:50.011Z,30.27
2018-04-17T11:33:50.008Z,30.91
2018-04-17T11:34:50.002Z,31.57
2018-04-17T11:35:49.998Z,30.76
2018-04-17T11:36:49.992Z,30.76
2018-04-17T11:37:49.986Z,31.30
2018-04-17T11:38:49.980Z,31.54
2018-04-17T11:39:50.482Z,32.07
2018-04-17T11:40:49.975Z,32.72
2018-04-17T11:41:49.975Z,32.60
2018-04-17T11:42:49.979Z,33.01
2018-04-17T11:43:49.963Z,32.95
2018-04-17T11:44:49.958Z,33.75
2018-04-17T11:45:49.952Z,34.04
2018-04-17T11:46:49.949Z,33.65
2018-04-17T11:47:49.945Z,33.33
2018-04-17T11:48:49.943Z,32.86
2018-04-17T11:49:49.940Z,32.07
2018-04-17T11:50:49.936Z,32.26
2018-04-17T11:51:49.935Z,32.71
2018-04-17T11:52:49.932Z,32.79
2018-04-17T11:53:49.928Z,32.54
2018-04-17T11:54:49.930Z,32.09
2018-04-17T11:55:49.922Z,32.09
2018-04-17T11:56:49.921Z,31.85
2018-04-17T11:57:49.917Z,31.97
2018-04-17T11:58:49.917Z,31.85
2018-04-17T11:59:49.910Z,32.41
2018-04-17T12:00:49.911Z,32.88
2018-04-17T12:01:49.909Z,33.36
2018-04-17T12:02:49.905Z,33.33
2018-04-17T12:03:49.903Z,33.28
2018-04-17T12:04:49.900Z,34.06
2018-04-17T12:05:49.898Z,34.03
2018-04-17T12:06:49.896Z,34.78
2018-04-17T12:07:49.895Z,34.73
2018-04-17T12:08:49.896Z,35.45
2018-04-17T12:09:49.890Z,35.78
2018-04-17T12:10:50.466Z,35.81
2018-04-17T12:11:49.891Z,35.22
2018-04-17T12:12:49.889Z,35.18
2018-04-17T12:13:49.890Z,34.26
2018-04-17T12:14:49.886Z,34.02
2018-04-17T12:15:49.887Z,33.82
2018-04-17T12:16:49.885Z,34.63
2018-04-17T12:17:49.882Z,35.25
2018-04-17T12:18:49.888Z,34.35
2018-04-17T12:19:49.884Z,35.13
2018-04-17T12:20:49.882Z,34.70
2018-04-17T12:21:49.883Z,35.56
2018-04-17T12:22:49.883Z,34.83
2018-04-17T12:23:49.881Z,34.73
2018-04-17T12:24:49.879Z,34.75
2018-04-17T12:25:49.903Z,35.27
2018-04-17T12:26:49.882Z,34.69
2018-04-17T12:27:49.890Z,34.75
2018-04-17T12:28:49.879Z,35.25
2018-04-17T12:29:49.879Z,35.00
2018-04-17T12:30:49.879Z,35.27
2018-04-17T12:31:49.882Z,35.23
2018-04-17T12:32:49.898Z,35.79
2018-04-17T12:33:49.880Z,35.84
2018-04-17T12:34:49.881Z,36.39
2018-04-17T12:35:49.881Z,37.10
2018-04-17T12:36:49.881Z,37.47
2018-04-17T12:37:49.886Z,38.09
2018-04-17T12:38:49.886Z,38.41
2018-04-17T12:39:49.883Z,38.42
2018-04-17T12:40:49.886Z,38.63
2018-04-17T12:41:50.453Z,35.31
2018-04-17T12:42:49.888Z,34.81
2018-04-17T12:43:49.889Z,34.66
2018-04-17T12:44:49.890Z,34.51
2018-04-17T12:45:49.890Z,34.38
2018-04-17T12:46:49.893Z,34.76
2018-04-17T12:47:49.893Z,35.49
2018-04-17T12:48:49.895Z,35.78
2018-04-17T12:49:49.893Z,35.35
2018-04-17T12:50:49.896Z,34.85
2018-04-17T12:51:49.897Z,34.31
2018-04-17T12:52:49.899Z,33.91
2018-04-17T12:53:49.898Z,33.51